Ace, Texas
Current Conditions -  °F | °C
As of 11:15 AM on Monday 22 Dec 2014 (Local Time) from K6R3 Reporting Station
Broken Clouds Broken Clouds  
Wind Chill: 69°   Ceiling: 1900
Heat Index: 69°   Visibility: 7mi
Dew Point: 62°   Wind: 17mph
Humidity: 77%   Direction: 210°SSW
Pressure: 29.72"   Gusts: 22mph
Location:  30.54°N, 94.82°W
Report Text: K6R3 221715Z AUTO 21015G19KT 7SM BKN019 BKN025 21/16 A2972 RMK AO2 T02050164
Loading
Personal Weather Stations






























Interactive Weather Map New forecast layout! Learn more

10-Day Weather Forecast

Advertisements
Track Severe Weather on mobile